Time;durP1;ratioP1;P1;durP2;ratioP2;P2;SDS_P1;SDS_P2;PMS_P1;PMS_P2;Temp;Humidity;BMP_temperature;BMP_pressure;BME280_temperature;BME280_humidity;BME280_pressure;Samples;Min_cycle;Max_cycle;Signal;HPM_P1;HPM_P2
2023/04/18 00:00:39;;;;;;;0.00;0.00;;;;;;;-141.97;100.00;47751.66;5052299;28;20196;-83
2023/04/18 00:03:04;;;;;;;0.00;0.00;;;;;;;-141.97;100.00;47788.19;5052211;28;20185;-83
2023/04/18 00:05:29;;;;;;;0.00;0.00;;;;;;;-141.97;100.00;47749.72;5051714;28;20166;-83
2023/04/18 00:07:55;;;;;;;0.00;0.00;;;;;;;-141.97;100.00;47742.03;5056239;28;20227;-83
2023/04/18 00:10:20;;;;;;;0.00;0.00;;;;;;;-141.97;100.00;47799.72;5057736;28;20166;-83
2023/04/18 00:12:46;;;;;;;0.00;0.00;;;;;;;-141.97;100.00;47753.56;5052551;28;20617;-83
2023/04/18 00:15:12;;;;;;;0.00;0.00;;;;;;;-141.97;100.00;47751.66;5052047;28;20189;-83
2023/04/18 00:17:38;;;;;;;0.00;0.00;;;;;;;-141.97;100.00;47765.09;5052077;28;20161;-83
2023/04/18 00:20:10;;;;;;;0.00;0.00;;;;;;;-141.97;100.00;47786.25;5033819;28;20545;-83
2023/04/18 00:22:41;;;;;;;0.00;0.00;;;;;;;-141.97;100.00;47765.09;5052115;28;20199;-83
2023/04/18 00:25:10;;;;;;;0.00;0.00;;;;;;;-141.97;100.00;47753.56;5033753;28;20688;-82
2023/04/18 00:27:37;;;;;;;0.00;0.00;;;;;;;-141.97;100.00;47828.53;5051618;28;20196;-84
2023/04/18 00:30:04;;;;;;;0.00;0.00;;;;;;;-141.97;100.00;47730.50;5033861;28;20214;-83
2023/04/18 00:32:29;;;;;;;0.00;0.00;;;;;;;-141.97;100.00;47755.50;5051660;28;20664;-83
2023/04/18 00:34:55;;;;;;;0.00;0.00;;;;;;;-141.97;100.00;47711.28;5051356;28;20350;-83
2023/04/18 00:37:20;;;;;;;0.00;0.00;;;;;;;-141.97;100.00;47765.09;5051341;28;20621;-84
2023/04/18 00:39:46;;;;;;;0.00;0.00;;;;;;;-141.97;100.00;47780.47;5051190;28;20197;-82
2023/04/18 00:42:11;;;;;;;0.00;0.00;;;;;;;-141.97;100.00;47732.44;5051276;28;20169;-83
2023/04/18 00:44:36;;;;;;;0.00;0.00;;;;;;;-141.97;100.00;47928.50;5051856;28;20518;-83
2023/04/18 00:47:02;;;;;;;0.00;0.00;;;;;;;-141.97;100.00;47742.03;5051170;28;20176;-82
2023/04/18 00:49:27;;;;;;;0.00;0.00;;;;;;;-141.97;100.00;47715.13;5051166;28;20191;-82
2023/04/18 00:51:55;;;;;;;0.03;0.03;;;;;;;-141.97;100.00;47811.25;5055733;28;20162;-81
2023/04/18 00:54:21;;;;;;;0.00;0.00;;;;;;;-141.97;100.00;47780.47;5072206;28;20205;-83
2023/04/18 00:56:47;;;;;;;0.00;0.00;;;;;;;-141.97;100.00;47759.34;5051556;28;20177;-83
2023/04/18 00:59:13;;;;;;;0.00;0.00;;;;;;;-141.97;100.00;47772.78;5051533;28;20161;-83
2023/04/18 01:01:42;;;;;;;0.00;0.00;;;;;;;-141.97;100.00;47784.34;5033248;28;20586;-82
2023/04/18 01:04:08;;;;;;;0.00;0.00;;;;;;;-141.97;100.00;47745.88;5051104;28;20150;-83
2023/04/18 01:06:35;;;;;;;0.00;0.00;;;;;;;-141.97;100.00;47765.09;5033205;28;20590;-83
2023/04/18 01:09:01;;;;;;;0.00;0.00;;;;;;;-141.97;100.00;47772.78;5050950;28;20157;-83
2023/04/18 01:11:26;;;;;;;0.00;0.00;;;;;;;-141.97;100.00;47749.72;5051061;28;20778;-83
2023/04/18 01:14:02;;;;;;;0.00;0.00;;;;;;;-141.97;100.00;47901.59;5038801;28;20235;-83
2023/04/18 01:16:31;;;;;;;2.50;2.30;;;;;;;-141.97;100.00;47776.63;5031309;28;20251;-83
2023/04/18 01:18:57;;;;;;;0.10;0.10;;;;;;;-141.97;100.00;47790.09;5031315;28;20270;-83
2023/04/18 01:21:22;;;;;;;0.27;0.27;;;;;;;-141.97;100.00;47772.78;5029689;28;20180;-83
2023/04/18 01:23:48;;;;;;;0.00;0.00;;;;;;;-141.97;100.00;47761.25;5030659;28;20212;-83
2023/04/18 01:26:13;;;;;;;0.17;0.17;;;;;;;-141.97;100.00;47801.63;5030751;28;20170;-83
2023/04/18 01:28:39;;;;;;;0.00;0.00;;;;;;;-141.97;100.00;47730.50;5030728;28;20584;-83
2023/04/18 01:31:04;;;;;;;0.00;0.00;;;;;;;-141.97;100.00;47788.19;5031256;28;20198;-83
2023/04/18 01:33:30;;;;;;;0.00;0.00;;;;;;;-141.97;100.00;47799.72;5018444;28;20170;-82
2023/04/18 01:35:55;;;;;;;0.20;0.20;;;;;;;-141.97;100.00;47793.94;5040659;28;20225;-83
2023/04/18 01:38:20;;;;;;;0.00;0.00;;;;;;;-141.97;100.00;47795.88;5032643;28;20197;-83
2023/04/18 01:40:46;;;;;;;0.00;0.00;;;;;;;-141.97;100.00;47788.19;5031858;28;20544;-83
2023/04/18 01:43:12;;;;;;;0.10;0.10;;;;;;;-141.97;100.00;47801.63;5031829;28;20170;-83
2023/04/18 01:45:37;;;;;;;0.00;0.00;;;;;;;-141.97;100.00;47943.88;5014334;28;20569;-83
2023/04/18 01:48:03;;;;;;;0.00;0.00;;;;;;;-141.97;100.00;47795.88;5050548;28;20165;-84
2023/04/18 01:50:28;;;;;;;0.00;0.00;;;;;;;-141.97;100.00;47759.34;5051868;28;20158;-82
2023/04/18 01:52:53;;;;;;;0.07;0.07;;;;;;;-141.97;100.00;47772.78;5054297;28;20161;-82
2023/04/18 01:55:19;;;;;;;0.00;0.00;;;;;;;-141.97;100.00;47807.41;5054455;28;20201;-82
2023/04/18 01:57:44;;;;;;;0.00;0.00;;;;;;;-141.97;100.00;47815.09;5035960;28;20197;-82
2023/04/18 02:00:10;;;;;;;0.37;0.37;;;;;;;-141.97;100.00;47767.03;5053814;28;20170;-82
2023/04/18 02:02:36;;;;;;;0.00;0.00;;;;;;;-141.97;100.00;47734.34;5053854;28;20595;-83
2023/04/18 02:05:01;;;;;;;0.00;0.00;;;;;;;-141.97;100.00;47809.31;5052707;28;20169;-83
2023/04/18 02:07:27;;;;;;;0.00;0.00;;;;;;;-141.97;100.00;47765.09;5054307;28;20174;-83
2023/04/18 02:09:52;;;;;;;0.00;0.00;;;;;;;-141.97;100.00;47742.03;5053890;28;20212;-83
2023/04/18 02:12:17;;;;;;;0.00;0.00;;;;;;;-141.97;100.00;47795.88;5036149;28;20234;-83
2023/04/18 02:14:43;;;;;;;0.20;0.20;;;;;;;-141.97;100.00;47722.81;5053985;28;20221;-83
2023/04/18 02:17:08;;;;;;;0.00;0.00;;;;;;;-141.97;100.00;47780.47;5053873;28;20162;-82
2023/04/18 02:19:34;;;;;;;0.00;0.00;;;;;;;-141.97;100.00;47780.47;5054225;28;20168;-83
2023/04/18 02:21:59;;;;;;;0.00;0.00;;;;;;;-141.97;100.00;47747.81;5054079;28;20173;-83
2023/04/18 02:24:25;;;;;;;0.00;0.00;;;;;;;-141.97;100.00;47745.88;5053553;28;20165;-83
2023/04/18 02:26:50;;;;;;;0.00;0.00;;;;;;;-141.97;100.00;47788.19;5053760;28;20244;-83
2023/04/18 02:29:16;;;;;;;0.00;0.00;;;;;;;-141.97;100.00;47897.75;5053564;28;20165;-83
2023/04/18 02:31:41;;;;;;;0.10;0.10;;;;;;;-141.97;100.00;47709.38;5053789;28;20248;-83
2023/04/18 02:34:07;;;;;;;1.00;1.00;;;;;;;-141.97;100.00;47809.31;5053405;28;20197;-83
2023/04/18 02:36:32;;;;;;;0.00;0.00;;;;;;;-141.97;100.00;47836.22;5053246;28;20260;-84
2023/04/18 02:38:58;;;;;;;0.10;0.10;;;;;;;-141.97;100.00;47767.03;5053490;28;20170;-82
2023/04/18 02:41:23;;;;;;;0.03;0.03;;;;;;;-141.97;100.00;47790.09;5035737;28;20200;-83
2023/04/18 02:43:49;;;;;;;1.53;1.43;;;;;;;-141.97;100.00;47776.63;5053743;28;20522;-82
2023/04/18 02:46:14;;;;;;;0.00;0.00;;;;;;;-141.97;100.00;47815.09;5053558;28;20993;-83
2023/04/18 02:48:40;;;;;;;0.00;0.00;;;;;;;-141.97;100.00;47790.09;5053235;28;20173;-83
2023/04/18 02:51:06;;;;;;;0.00;0.00;;;;;;;-141.97;100.00;47772.78;5053098;28;20610;-83
2023/04/18 02:53:32;;;;;;;0.10;0.10;;;;;;;-141.97;100.00;47734.34;5053422;28;20193;-83
2023/04/18 02:55:58;;;;;;;0.00;0.00;;;;;;;-141.97;100.00;47768.94;5060839;28;20193;-82
2023/04/18 02:58:23;;;;;;;0.00;0.00;;;;;;;-141.97;100.00;47782.41;5059705;28;20184;-83
2023/04/18 03:00:52;;;;;;;0.00;0.00;;;;;;;-141.97;100.00;47901.59;5038126;28;20165;-82
2023/04/18 03:03:17;;;;;;;0.00;0.00;;;;;;;-141.97;100.00;47857.38;5055098;28;20231;-83
2023/04/18 03:05:43;;;;;;;0.00;0.00;;;;;;;-141.97;100.00;47792.03;5053825;28;20161;-84
2023/04/18 03:08:08;;;;;;;0.00;0.00;;;;;;;-141.97;100.00;47780.47;5053551;28;20160;-83
2023/04/18 03:10:33;;;;;;;0.60;0.47;;;;;;;-141.97;100.00;47778.56;5053810;28;20606;-83
2023/04/18 03:13:00;;;;;;;0.30;0.30;;;;;;;-141.97;100.00;47728.59;5053849;28;20157;-82
2023/04/18 03:15:26;;;;;;;0.00;0.00;;;;;;;-141.97;100.00;47753.56;5052708;28;20185;-82
2023/04/18 03:17:51;;;;;;;0.00;0.00;;;;;;;-141.97;100.00;47743.97;5036128;28;20185;-82
2023/04/18 03:20:17;;;;;;;0.00;0.00;;;;;;;-141.97;100.00;47807.41;5053682;28;20366;-82
2023/04/18 03:22:42;;;;;;;0.00;0.00;;;;;;;-141.97;100.00;47778.56;5052854;28;20169;-82
2023/04/18 03:25:08;;;;;;;0.00;0.00;;;;;;;-141.97;100.00;47784.34;5052566;28;20188;-83
2023/04/18 03:27:34;;;;;;;0.00;0.00;;;;;;;-141.97;100.00;47861.22;5034709;28;20248;-83
2023/04/18 03:30:00;;;;;;;0.00;0.00;;;;;;;-141.97;100.00;47786.25;5052780;28;20169;-83
2023/04/18 03:32:25;;;;;;;0.00;0.00;;;;;;;-141.97;100.00;47784.34;5053273;28;20162;-82
2023/04/18 03:34:51;;;;;;;0.00;0.00;;;;;;;-141.97;100.00;47788.19;5052413;28;20564;-82
2023/04/18 03:37:16;;;;;;;0.00;0.00;;;;;;;-141.97;100.00;47684.38;5035703;28;20181;-83
2023/04/18 03:39:42;;;;;;;0.00;0.00;;;;;;;-141.97;100.00;47857.38;5035888;28;20177;-82
2023/04/18 03:42:07;;;;;;;0.00;0.00;;;;;;;-141.97;100.00;47711.28;5053192;28;20548;-81
2023/04/18 03:44:33;;;;;;;0.00;0.00;;;;;;;-141.97;100.00;47828.53;5055288;28;20618;-81
2023/04/18 03:46:58;;;;;;;0.00;0.00;;;;;;;-141.97;100.00;47799.72;5075372;28;20188;-81
2023/04/18 03:49:24;;;;;;;0.00;0.00;;;;;;;-141.97;100.00;47697.84;5054506;28;20169;-83
2023/04/18 03:51:49;;;;;;;0.00;0.00;;;;;;;-141.97;100.00;47809.31;5052531;28;20244;-84
2023/04/18 03:54:15;;;;;;;0.00;0.00;;;;;;;-141.97;100.00;47884.28;5052271;28;20216;-83
2023/04/18 03:56:41;;;;;;;0.00;0.00;;;;;;;-141.97;100.00;47782.41;5052472;28;20157;-83
2023/04/18 03:59:06;;;;;;;0.00;0.00;;;;;;;-141.97;100.00;47763.19;5052172;28;20169;-83
2023/04/18 04:01:32;;;;;;;0.00;0.00;;;;;;;-141.97;100.00;47797.78;5034228;28;20554;-83
2023/04/18 04:03:58;;;;;;;0.00;0.00;;;;;;;-141.97;100.00;47788.19;5052017;28;20157;-82
2023/04/18 04:06:24;;;;;;;0.10;0.10;;;;;;;-141.97;100.00;47776.63;5051658;28;20257;-83
2023/04/18 04:08:50;;;;;;;0.63;0.63;;;;;;;-141.97;100.00;47747.81;5052178;28;20161;-83
2023/04/18 04:11:16;;;;;;;0.00;0.00;;;;;;;-141.97;100.00;47792.03;5051698;28;20169;-83
2023/04/18 04:13:41;;;;;;;0.00;0.00;;;;;;;-141.97;100.00;47799.72;5051554;28;20241;-83
2023/04/18 04:16:07;;;;;;;0.47;0.47;;;;;;;-141.97;100.00;47868.91;5051614;28;20277;-83
2023/04/18 04:18:32;;;;;;;0.00;0.00;;;;;;;-141.97;100.00;47799.72;5033440;28;20173;-82
2023/04/18 04:20:58;;;;;;;0.00;0.00;;;;;;;-141.97;100.00;47772.78;5051848;28;20216;-82
2023/04/18 04:23:27;;;;;;;0.20;0.17;;;;;;;-141.97;100.00;47786.25;5051640;28;20163;-81
2023/04/18 04:25:53;;;;;;;0.00;0.00;;;;;;;-141.97;100.00;47805.47;5051387;28;20637;-82
2023/04/18 04:28:22;;;;;;;0.00;0.00;;;;;;;-141.97;100.00;47749.72;5051418;28;20165;-82
2023/04/18 04:30:54;;;;;;;0.07;0.07;;;;;;;-141.97;100.00;47759.34;5051460;28;20244;-82
2023/04/18 04:33:20;;;;;;;0.20;0.20;;;;;;;-141.97;100.00;47768.94;5050947;28;20559;-82
2023/04/18 04:35:46;;;;;;;0.00;0.00;;;;;;;-141.97;100.00;47805.47;5050862;28;20217;-81
2023/04/18 04:38:15;;;;;;;0.00;0.00;;;;;;;-141.97;100.00;47768.94;5051928;28;20171;-81
2023/04/18 04:40:41;;;;;;;0.00;0.00;;;;;;;-141.97;100.00;47799.72;5051359;28;20166;-81
2023/04/18 04:43:11;;;;;;;0.00;0.00;;;;;;;-141.97;100.00;47722.81;5051568;28;20192;-82
2023/04/18 04:45:38;;;;;;;0.67;0.67;;;;;;;-141.97;100.00;47809.31;5051510;28;20188;-82
2023/04/18 04:48:04;;;;;;;0.10;0.10;;;;;;;-141.97;100.00;47780.47;5033430;28;20184;-82
2023/04/18 04:50:32;;;;;;;2.17;1.77;;;;;;;-141.97;100.00;47757.41;5051102;28;20211;-82
2023/04/18 04:52:57;;;;;;;0.00;0.00;;;;;;;-141.97;100.00;47811.25;5051442;28;20166;-82
2023/04/18 04:55:23;;;;;;;0.00;0.00;;;;;;;-141.97;100.00;47807.41;5051313;28;20657;-81
2023/04/18 04:57:48;;;;;;;0.77;0.77;;;;;;;-141.97;100.00;47759.34;5049496;28;20239;-81
2023/04/18 05:00:19;;;;;;;0.00;0.00;;;;;;;-141.97;100.00;47761.25;5033072;28;20174;-82
2023/04/18 05:02:45;;;;;;;0.00;0.00;;;;;;;-141.97;100.00;47734.34;5000615;28;20294;-83
2023/04/18 05:05:10;;;;;;;2.90;0.77;;;;;;;-141.97;100.00;47895.81;5048622;28;20177;-82
2023/04/18 05:07:35;;;;;;;0.00;0.00;;;;;;;-141.97;100.00;47790.09;5049874;28;20166;-82
2023/04/18 05:10:01;;;;;;;0.00;0.00;;;;;;;-141.97;100.00;47793.94;5030649;28;20162;-82
2023/04/18 05:12:26;;;;;;;0.00;0.00;;;;;;;-141.97;100.00;47780.47;5030757;28;20525;-82
2023/04/18 05:14:52;;;;;;;0.20;0.20;;;;;;;-141.97;100.00;47788.19;5030150;28;20251;-82
2023/04/18 05:17:17;;;;;;;0.00;0.00;;;;;;;-141.97;100.00;47782.41;5030586;28;20205;-82
2023/04/18 05:19:43;;;;;;;0.00;0.00;;;;;;;-141.97;100.00;47747.81;5030393;28;20170;-82
2023/04/18 05:22:08;;;;;;;0.00;0.00;;;;;;;-141.97;100.00;47817.00;5030896;28;20172;-82
2023/04/18 05:24:34;;;;;;;0.27;0.27;;;;;;;-141.97;100.00;47834.31;5030186;28;20224;-82
2023/04/18 05:27:00;;;;;;;0.73;0.73;;;;;;;-141.97;100.00;47763.19;5034267;28;20182;-83
2023/04/18 05:29:25;;;;;;;0.00;0.00;;;;;;;-141.97;100.00;47780.47;5035055;28;20181;-82
2023/04/18 05:31:51;;;;;;;0.07;0.07;;;;;;;-141.97;100.00;47830.47;5034462;28;20619;-83
2023/04/18 05:34:16;;;;;;;0.13;0.13;;;;;;;-141.97;100.00;47753.56;5034332;28;20205;-83
2023/04/18 05:36:42;;;;;;;0.00;0.00;;;;;;;-141.97;100.00;47801.63;5034451;28;20648;-83
2023/04/18 05:39:07;;;;;;;0.00;0.00;;;;;;;-141.97;100.00;47765.09;5034497;28;20181;-83
2023/04/18 05:41:33;;;;;;;0.10;0.10;;;;;;;-141.97;100.00;47713.22;5016780;28;20174;-83
2023/04/18 05:43:58;;;;;;;0.00;0.00;;;;;;;-141.97;100.00;47907.34;5034038;28;20189;-83
2023/04/18 05:46:23;;;;;;;0.10;0.10;;;;;;;-141.97;100.00;47793.94;5042947;28;20342;-82
2023/04/18 05:48:49;;;;;;;9.53;2.80;;;;;;;-141.97;100.00;47890.06;5058324;28;20169;-82
2023/04/18 05:51:14;;;;;;;7.90;3.83;;;;;;;-141.97;100.00;47803.56;5062084;28;20161;-82
2023/04/18 05:53:40;;;;;;;43.40;21.60;;;;;;;-141.97;100.00;47768.94;5049471;28;20209;-83
2023/04/18 05:56:06;;;;;;;41.13;21.30;;;;;;;-141.97;100.00;47799.72;5034568;28;20678;-82
2023/04/18 05:58:31;;;;;;;41.63;20.73;;;;;;;-141.97;100.00;47795.88;5034337;28;20231;-81
2023/04/18 06:00:56;;;;;;;40.57;20.70;;;;;;;-141.97;100.00;47915.03;5033973;28;20176;-82
2023/04/18 06:03:22;;;;;;;39.20;19.83;;;;;;;-141.97;100.00;47761.25;5023880;28;20229;-83
2023/04/18 06:05:47;;;;;;;42.23;20.90;;;;;;;-141.97;100.00;47768.94;5034341;28;20194;-81
2023/04/18 06:08:12;;;;;;;40.67;21.40;;;;;;;-141.97;100.00;47743.97;5033822;28;20536;-82
2023/04/18 06:10:38;;;;;;;43.87;23.20;;;;;;;-141.97;100.00;47759.34;5033770;28;20162;-83
2023/04/18 06:13:03;;;;;;;44.20;21.60;;;;;;;-141.97;100.00;47743.97;5034325;28;20248;-82
2023/04/18 06:15:29;;;;;;;42.00;21.83;;;;;;;-141.97;100.00;47899.66;5041880;28;20190;-83
2023/04/18 06:17:54;;;;;;;40.20;20.70;;;;;;;-141.97;100.00;47793.94;5045874;28;20243;-83
2023/04/18 06:20:21;;;;;;;43.57;22.33;;;;;;;-141.97;100.00;47811.25;5052018;28;20184;-83
2023/04/18 06:22:47;;;;;;;40.93;22.60;;;;;;;-141.97;100.00;47682.47;5035902;28;20183;-83
2023/04/18 06:25:12;;;;;;;39.13;20.53;;;;;;;-141.97;100.00;47772.78;5036032;28;20257;-83
2023/04/18 06:27:38;;;;;;;41.13;20.93;;;;;;;-141.97;100.00;47778.56;5033634;28;20278;-82
2023/04/18 06:30:04;;;;;;;38.77;20.30;;;;;;;-141.97;100.00;47736.28;5033787;28;20165;-83
2023/04/18 06:32:30;;;;;;;34.83;17.80;;;;;;;-141.97;100.00;47753.56;5032433;28;20180;-82
2023/04/18 06:34:55;;;;;;;34.33;18.27;;;;;;;-141.97;100.00;47757.41;5033046;28;20193;-83
2023/04/18 06:37:21;;;;;;;32.80;17.37;;;;;;;-141.97;100.00;47759.34;5033823;28;20237;-83
2023/04/18 06:39:46;;;;;;;34.93;19.37;;;;;;;-141.97;100.00;47784.34;5043782;28;20185;-83
2023/04/18 06:42:12;;;;;;;33.93;17.83;;;;;;;-141.97;100.00;47761.25;5049066;28;20178;-83
2023/04/18 06:44:38;;;;;;;34.80;17.23;;;;;;;-141.97;100.00;47695.91;5016075;28;20178;-83
2023/04/18 06:47:04;;;;;;;30.70;16.60;;;;;;;-141.97;100.00;47782.41;5016113;28;20510;-84
2023/04/18 06:49:30;;;;;;;31.63;17.73;;;;;;;-141.97;100.00;47753.56;5032481;28;20162;-83
2023/04/18 06:51:56;;;;;;;34.63;17.10;;;;;;;-141.97;100.00;47780.47;5015733;28;20174;-83
2023/04/18 06:54:22;;;;;;;33.73;17.67;;;;;;;-141.97;100.00;47694.00;5033286;28;20201;-83
2023/04/18 06:56:47;;;;;;;31.67;17.20;;;;;;;-141.97;100.00;47684.38;5033323;28;20166;-83
2023/04/18 06:59:13;;;;;;;32.53;17.23;;;;;;;-141.97;100.00;47822.78;5033341;28;20184;-83
2023/04/18 07:01:42;;;;;;;35.83;17.40;;;;;;;-141.97;100.00;47661.31;5005725;28;20178;-84
2023/04/18 07:04:07;;;;;;;34.07;17.37;;;;;;;-141.97;100.00;47755.50;5032415;28;20194;-83
2023/04/18 07:06:33;;;;;;;37.10;18.20;;;;;;;-141.97;100.00;47784.34;5033066;28;20231;-83
2023/04/18 07:09:00;;;;;;;34.73;18.80;;;;;;;-141.97;100.00;47772.78;5032497;28;20166;-83
2023/04/18 07:11:26;;;;;;;32.43;17.33;;;;;;;-141.97;100.00;47751.66;5032269;28;20186;-83
2023/04/18 07:13:51;;;;;;;33.43;18.17;;;;;;;-141.97;100.00;47753.56;5033371;28;20205;-82
2023/04/18 07:16:17;;;;;;;32.37;18.47;;;;;;;-141.97;100.00;47651.69;5033329;28;20323;-82
2023/04/18 07:18:42;;;;;;;31.93;20.03;;;;;;;-141.97;100.00;47707.44;5016163;28;20533;-82
2023/04/18 07:21:08;;;;;;;32.60;19.10;;;;;;;-141.97;100.00;47751.66;5030849;28;20185;-82
2023/04/18 07:23:34;;;;;;;33.90;18.83;;;;;;;-141.97;100.00;47707.44;5052175;28;20161;-82
2023/04/18 07:26:01;;;;;;;31.70;18.40;;;;;;;-141.97;100.00;47776.63;5052553;28;20161;-82
2023/04/18 07:28:27;;;;;;;33.03;18.83;;;;;;;-141.97;100.00;47778.56;5052499;28;20575;-84
2023/04/18 07:30:54;;;;;;;34.30;20.40;;;;;;;-141.97;100.00;47772.78;5039944;28;20177;-82
2023/04/18 07:33:20;;;;;;;35.47;20.30;;;;;;;-141.97;100.00;47899.66;5015413;28;20173;-83
2023/04/18 07:35:45;;;;;;;30.60;19.17;;;;;;;-141.97;100.00;47872.75;5032429;28;20603;-83
2023/04/18 07:38:12;;;;;;;32.77;19.40;;;;;;;-141.97;100.00;47901.59;5032251;28;20224;-84
2023/04/18 07:40:37;;;;;;;34.13;20.20;;;;;;;-141.97;100.00;47624.78;5023634;28;20181;-83
2023/04/18 07:43:03;;;;;;;34.17;19.90;;;;;;;-141.97;100.00;47699.75;5034473;28;20169;-85
2023/04/18 07:45:28;;;;;;;34.60;20.20;;;;;;;-141.97;100.00;47861.22;5032810;28;20661;-84
2023/04/18 07:47:54;;;;;;;28.57;17.03;;;;;;;-141.97;100.00;47797.78;5051743;28;20203;-84
2023/04/18 07:50:19;;;;;;;35.37;19.60;;;;;;;-141.97;100.00;47790.09;5044819;28;20170;-85
2023/04/18 07:52:46;;;;;;;27.10;15.83;;;;;;;-141.97;100.00;47553.69;5017587;28;20196;-84
2023/04/18 07:55:13;;;;;;;35.93;17.50;;;;;;;-141.97;100.00;47872.75;5014831;28;20201;-84
2023/04/18 07:57:42;;;;;;;33.80;19.53;;;;;;;-141.97;100.00;47613.25;5031930;28;20231;-84
2023/04/18 08:00:08;;;;;;;34.23;20.10;;;;;;;-141.97;100.00;47838.16;5031372;28;20515;-84
2023/04/18 08:02:33;;;;;;;38.50;20.07;;;;;;;-141.97;98.70;47749.72;5021218;28;20283;-84
2023/04/18 08:04:59;;;;;;;34.80;19.53;;;;;;;-141.97;100.00;47745.88;5031378;28;20176;-84
2023/04/18 08:07:24;;;;;;;32.57;18.40;;;;;;;-141.97;100.00;47695.91;5031896;28;20181;-83
2023/04/18 08:09:50;;;;;;;35.23;19.10;;;;;;;-141.97;98.58;47736.28;5014099;28;20264;-82
2023/04/18 08:12:15;;;;;;;34.20;19.17;;;;;;;-141.97;98.49;47703.59;5013788;28;20174;-82
2023/04/18 08:14:41;;;;;;;35.50;19.43;;;;;;;-141.97;100.00;47532.53;5030976;28;20197;-82
2023/04/18 08:17:07;;;;;;;32.90;18.60;;;;;;;-141.97;100.00;47619.03;5014165;28;20185;-82
2023/04/18 08:19:32;;;;;;;33.07;19.03;;;;;;;-141.97;100.00;47770.88;5031520;28;20177;-82
2023/04/18 08:22:11;;;;;;;34.10;17.73;;;;;;;-141.97;100.00;47755.50;5013006;28;20177;-83
2023/04/18 08:24:38;;;;;;;33.70;19.67;;;;;;;-141.97;100.00;47759.34;5031906;28;20169;-84
2023/04/18 08:27:03;;;;;;;28.13;16.83;;;;;;;-141.97;100.00;47584.44;5031918;28;20304;-84
2023/04/18 08:29:29;;;;;;;26.20;15.70;;;;;;;-141.97;100.00;47682.47;5031033;28;20618;-84
2023/04/18 08:31:54;;;;;;;29.13;16.57;;;;;;;-141.97;100.00;47736.28;5049775;28;20223;-84
2023/04/18 08:34:19;;;;;;;26.70;14.47;;;;;;;-141.97;100.00;47701.69;5051289;28;20185;-84
2023/04/18 08:36:45;;;;;;;24.93;14.90;;;;;;;-141.97;100.00;47788.19;5050680;28;20812;-85
2023/04/18 08:39:10;;;;;;;27.47;14.07;;;;;;;-141.97;100.00;47870.81;5051258;28;20245;-84
2023/04/18 08:41:36;;;;;;;22.67;13.63;;;;;;;-141.97;100.00;47590.19;5049845;28;20555;-84
2023/04/18 08:44:02;;;;;;;23.30;14.30;;;;;;;-141.97;100.00;47680.53;5033420;28;20517;-84
2023/04/18 08:46:32;;;;;;;23.27;13.73;;;;;;;-141.97;100.00;47684.38;5033322;28;20176;-84
2023/04/18 08:48:58;;;;;;;23.47;13.17;;;;;;;-141.97;99.28;47592.13;5052162;28;20158;-84
2023/04/18 08:51:23;;;;;;;23.43;14.07;;;;;;;-141.97;98.49;47826.63;5052448;28;20173;-84
2023/04/18 08:53:49;;;;;;;21.13;13.40;;;;;;;-141.97;98.57;47665.16;5052756;28;20191;-84
2023/04/18 08:56:15;;;;;;;21.50;12.70;;;;;;;-141.97;98.14;47780.47;5051597;28;20220;-82
2023/04/18 08:58:43;;;;;;;22.27;13.93;;;;;;;-141.97;99.94;47782.41;5030939;28;20192;-83
2023/04/18 09:01:09;;;;;;;23.23;13.77;;;;;;;-141.97;100.00;47576.75;5025391;28;20177;-84
2023/04/18 09:03:38;;;;;;;22.30;13.50;;;;;;;-141.97;100.00;47838.16;5026697;28;20610;-83
2023/04/18 09:06:17;;;;;;;23.97;14.33;;;;;;;-141.97;100.00;47755.50;5056046;28;20188;-84
2023/04/18 09:08:56;;;;;;;24.40;15.83;;;;;;;-141.97;100.00;47780.47;5055872;28;20606;-84
2023/04/18 09:11:28;;;;;;;25.40;14.73;;;;;;;-141.97;100.00;47757.41;5045122;28;20176;-83
2023/04/18 09:13:55;;;;;;;24.87;14.60;;;;;;;-141.97;100.00;47767.03;5013936;28;20162;-84
2023/04/18 09:16:21;;;;;;;26.63;14.73;;;;;;;-141.97;100.00;47738.19;5031006;28;20269;-84
2023/04/18 09:19:10;;;;;;;34.07;18.47;;;;;;;-141.97;100.00;47786.25;5039705;28;20162;-84
2023/04/18 09:21:39;;;;;;;30.40;16.47;;;;;;;-141.97;100.00;47757.41;5034500;28;20166;-83
2023/04/18 09:24:28;;;;;;;32.37;15.90;;;;;;;-141.97;100.00;47757.41;5014734;28;20561;-83
2023/04/18 09:26:55;;;;;;;28.00;15.80;;;;;;;-141.97;100.00;47772.78;5014126;28;20249;-83
2023/04/18 09:29:39;;;;;;;30.60;16.63;;;;;;;-141.97;100.00;47765.09;5014437;28;20174;-82
2023/04/18 09:32:05;;;;;;;34.27;17.80;;;;;;;-141.97;100.00;47899.66;5031429;28;20174;-83
2023/04/18 09:34:37;;;;;;;33.97;17.60;;;;;;;-141.97;100.00;47895.81;5042791;28;20204;-84
2023/04/18 09:37:25;;;;;;;32.63;17.83;;;;;;;-141.97;100.00;47617.09;5053931;28;20222;-84
2023/04/18 09:39:51;;;;;;;37.57;20.40;;;;;;;-141.97;100.00;47770.88;5017304;28;20636;-83
2023/04/18 09:42:17;;;;;;;35.53;18.40;;;;;;;-141.97;100.00;47747.81;5030713;28;20254;-84
2023/04/18 09:45:02;;;;;;;42.77;18.60;;;;;;;-141.97;100.00;47730.50;5030176;28;20168;-83
2023/04/18 09:47:28;;;;;;;34.23;18.20;;;;;;;-141.97;100.00;47742.03;5027840;28;20192;-84
2023/04/18 09:49:54;;;;;;;38.17;19.17;;;;;;;-141.97;100.00;47918.88;5030846;28;20192;-84
2023/04/18 09:52:21;;;;;;;31.30;15.53;;;;;;;-141.97;100.00;47790.09;5012496;28;20638;-82
2023/04/18 09:54:48;;;;;;;39.63;21.10;;;;;;;-141.97;100.00;47761.25;5030616;28;20199;-81
2023/04/18 09:57:16;;;;;;;38.03;21.70;;;;;;;-141.97;100.00;47899.66;5012543;28;20249;-82
2023/04/18 09:59:49;;;;;;;66.33;34.23;;;;;;;-141.97;100.00;47780.47;5012204;28;20174;-82
2023/04/18 10:02:21;;;;;;;155.17;97.53;;;;;;;-141.97;100.00;47761.25;5018236;28;20174;-82
2023/04/18 10:04:48;;;;;;;96.80;60.20;;;;;;;-141.97;100.00;47888.13;5011946;28;20174;-82
2023/04/18 10:07:16;;;;;;;123.23;67.10;;;;;;;-141.97;100.00;47742.03;5029778;28;20170;-83
2023/04/18 10:09:44;;;;;;;53.13;27.63;;;;;;;-141.97;100.00;47768.94;5032147;28;20216;-83
2023/04/18 10:12:11;;;;;;;46.23;21.77;;;;;;;-141.97;100.00;47803.56;5032011;28;20178;-83
2023/04/18 10:14:41;;;;;;;47.93;22.37;;;;;;;-141.97;100.00;47780.47;5033108;28;20178;-82
2023/04/18 10:17:07;;;;;;;45.60;21.90;;;;;;;-141.97;100.00;47780.47;5033555;28;20214;-82
2023/04/18 10:19:33;;;;;;;44.03;21.73;;;;;;;-141.97;100.00;47792.03;5041777;28;20261;-81
2023/04/18 10:22:00;;;;;;;46.97;21.37;;;;;;;-141.97;100.00;47797.78;5037018;28;20256;-82
2023/04/18 10:24:45;;;;;;;43.53;20.27;;;;;;;-141.97;100.00;47795.88;5033271;28;20593;-82
2023/04/18 10:27:11;;;;;;;42.00;21.13;;;;;;;-141.97;100.00;47768.94;5033094;28;20162;-82
2023/04/18 10:29:50;;;;;;;45.90;20.73;;;;;;;-141.97;100.00;47890.06;5033471;28;20178;-83
2023/04/18 10:32:18;;;;;;;46.77;22.03;;;;;;;-141.97;100.00;47784.34;5032687;28;20239;-82
2023/04/18 10:34:45;;;;;;;46.73;21.73;;;;;;;-141.97;100.00;47799.72;5032679;28;20256;-83
2023/04/18 10:37:11;;;;;;;46.93;23.10;;;;;;;-141.97;100.00;47745.88;5033084;28;20308;-82
2023/04/18 10:40:09;;;;;;;54.33;28.30;;;;;;;-141.97;100.00;47820.84;5033441;28;20545;-83
2023/04/18 10:42:47;;;;;;;55.47;26.27;;;;;;;-141.97;100.00;47793.94;4968195;28;20231;-82
2023/04/18 10:45:19;;;;;;;51.80;23.67;;;;;;;-141.97;100.00;47820.84;4952893;29;20317;-82
2023/04/18 10:47:45;;;;;;;52.47;25.17;;;;;;;-141.97;100.00;47803.56;4953054;29;20275;-82
2023/04/18 10:50:11;;;;;;;52.33;26.33;;;;;;;-141.97;100.00;47824.69;4952182;29;20335;-82
2023/04/18 10:52:37;;;;;;;43.97;22.67;;;;;;;-141.97;100.00;47757.41;4971113;28;20200;-83
2023/04/18 10:55:14;;;;;;;46.00;22.03;;;;;;;-141.97;100.00;47757.41;4956092;28;20204;-83
2023/04/18 10:57:42;;;;;;;46.10;22.77;;;;;;;-141.97;100.00;47790.09;4971958;28;20180;-83
2023/04/18 11:00:13;;;;;;;47.07;24.80;;;;;;;-141.97;100.00;47799.72;4972237;28;20609;-84